ETHF/FRZ METAR and TAF weather

Enter ICAO airport designator
Station Type Date Time Source
ETHF METAR 2020/07/06 23:20 UTC NOAA

ETHF 062320Z VRB01KT 9999 FEW060 09/07 Q1021 BLU+


Station Type Date Time Source
ETHF Decoded METAR 2020/07/06 23:20 UTC NOAA

Fritzlar, Germany (ETHF) 51-07N 009-17E 181M
Jul 06, 2020 - 07:20 PM EDT / 2020.07.06 2320 UTC
Wind: Variable at 1 MPH (1 KT):0
Visibility: greater than 7 mile(s):0
Sky conditions: mostly clear
Temperature: 48 F (9 C)
Dew Point: 44 F (7 C)
Relative Humidity: 87%
Pressure (altimeter): 30.15 in. Hg (1021 hPa)
ob: ETHF 062320Z VRB01KT 9999 FEW060 09/07 Q1021 BLU+
cycle: 23

Station Type Date Time Source
ETHF TAF 2020/02/03 18:30 UTC NOAA

TAF ETHF 031723Z 0318/0413 23006KT 9999 NSW BKN030
TEMPO 0318/0403 25005KT 5000 RA FEW010 BKN020

Example: see airport list